M/s Stromma Kanal — SJLM — position and weather

sailwx.info

Track history (hours):
 
Tides and Currents Weather Stations Pressure Air Temp Water Temp Dewpoint Dewpoint Depression Visibility Wind Speed Wind Dir Waves Ship Positions

M/s Stromma Kanal

Last reported at 2018-May-24 02:27 UTC. Time now 2018-May-24 02:34 UTC.
Position N 59°20' E 018°05'.

Length 26 m.

Type: Passenger vessel. MMSI: 265609570.

Date/timePositionNaut miles runAvg speedWind from/ knotsBaromVisibWave heightAir tempDewpointWater temp
2018-May-24 02:27N 59°20' E 018°05'0 0.0
2018-May-24 01:57N 59°20' E 018°05'0 0.0
2018-May-24 01:30N 59°20' E 018°05'0 0.0
2018-May-24 01:00N 59°20' E 018°05'0 0.0
2018-May-24 00:27N 59°20' E 018°05'0 0.0
2018-May-24 00:00N 59°20' E 018°05'0 0.0
2018-May-23 23:27N 59°20' E 018°05'0 0.0
2018-May-23 23:00N 59°20' E 018°05'0 0.0
2018-May-23 22:30N 59°20' E 018°05'0 0.0
2018-May-23 22:00N 59°20' E 018°05'0 0.0
2018-May-23 21:30N 59°20' E 018°05'0 0.0
2018-May-23 21:00N 59°20' E 018°05'0 0.5
2018-May-23 20:28N 59°20' E 018°05'3 7.2
2018-May-23 20:00N 59°20' E 018°12'5 9.8
2018-May-23 19:30N 59°23' E 018°20'1 1.0
2018-May-23 18:48N 59°23' E 018°20'2 5.5
2018-May-23 18:27N 59°22' E 018°18'4 9.1
2018-May-23 18:00N 59°20' E 018°11'3 6.3
2018-May-23 17:30N 59°20' E 018°05'0 0.4
2018-May-23 17:00N 59°20' E 018°05'0 0.0
2018-May-23 16:30N 59°20' E 018°05'0 0.0
2018-May-23 16:00N 59°20' E 018°05'0 0.0
2018-May-23 15:30N 59°20' E 018°05'1 1.7
2018-May-23 15:00N 59°19' E 018°05'510.5
2018-May-23 14:30N 59°21' E 018°14'14 3.0
2018-May-23 09:58N 59°18' E 018°40'11 6.4
2018-May-23 08:11N 59°23' E 018°20'313.7
2018-May-23 08:00N 59°21' E 018°16'611.3
2018-May-23 07:28N 59°19' E 018°05'1 1.6
2018-May-23 06:58N 59°20' E 018°05'0 0.0
2018-May-23 06:28N 59°20' E 018°05'0 0.0
2018-May-23 05:58N 59°20' E 018°05'0 0.0
2018-May-23 05:28N 59°20' E 018°05'0 0.0
2018-May-23 04:58N 59°20' E 018°05'0 0.0
2018-May-23 04:28N 59°20' E 018°05'0 0.0
2018-May-23 03:58N 59°20' E 018°05'0 0.0
2018-May-23 03:28N 59°20' E 018°05'0 0.0
2018-May-23 02:58N 59°20' E 018°05'0 0.0
2018-May-23 02:28N 59°20' E 018°05'0 0.0
2018-May-23 01:58N 59°20' E 018°05'0 0.0
2018-May-23 01:28N 59°20' E 018°05'0 0.0
2018-May-23 00:58N 59°20' E 018°05'0 0.0
2018-May-23 00:28N 59°20' E 018°05'0 0.0
2018-May-22 23:58N 59°20' E 018°05'0 0.0
2018-May-22 23:28N 59°20' E 018°05'0 0.0
2018-May-22 22:58N 59°20' E 018°05'0 0.0
2018-May-22 22:28N 59°20' E 018°05'0 0.0
2018-May-22 21:58N 59°20' E 018°05'0 0.0
2018-May-22 21:28N 59°20' E 018°05'0 0.0
2018-May-22 20:58N 59°20' E 018°05'0 0.0
2018-May-22 20:29N 59°20' E 018°05'3 6.5
2018-May-22 19:59N 59°20' E 018°11'510.3
2018-May-22 19:30N 59°23' E 018°19'1 0.8
2018-May-22 18:43N 59°23' E 018°20'2 5.0
2018-May-22 18:24N 59°22' E 018°18'411.1
2018-May-22 18:00N 59°20' E 018°10'3 5.6
2018-May-22 17:28N 59°20' E 018°05'0 0.0
2018-May-22 16:58N 59°20' E 018°05'0 0.0
2018-May-22 16:28N 59°20' E 018°05'0 0.0
2018-May-22 15:58N 59°20' E 018°05'0 0.0
2018-May-22 15:28N 59°20' E 018°05'0 0.0
2018-May-22 14:58N 59°20' E 018°05'0 0.0
2018-May-22 14:28N 59°20' E 018°05'0 0.0
2018-May-22 13:58N 59°20' E 018°05'0 0.0
2018-May-22 13:28N 59°20' E 018°05'0 0.0
2018-May-22 12:58N 59°20' E 018°05'0 0.0
2018-May-22 12:28N 59°20' E 018°05'0 0.0
2018-May-22 11:58N 59°20' E 018°05'0 0.0
2018-May-22 11:28N 59°20' E 018°05'0 0.0
2018-May-22 10:55N 59°20' E 018°05'0 0.0
2018-May-22 10:28N 59°20' E 018°05'0 0.0
2018-May-22 09:58N 59°20' E 018°05'0 0.0
2018-May-22 09:28N 59°20' E 018°05'0 0.0
2018-May-22 08:58N 59°20' E 018°05'0 0.0
2018-May-22 08:28N 59°20' E 018°05'0 0.0
2018-May-22 07:58N 59°20' E 018°05'0 0.0
2018-May-22 07:28N 59°20' E 018°05'0 0.0
2018-May-22 06:58N 59°20' E 018°05'0 0.0
2018-May-22 06:28N 59°20' E 018°05'0 0.0
2018-May-22 05:58N 59°20' E 018°05'0 0.0
2018-May-22 05:28N 59°20' E 018°05'0 0.0
2018-May-22 04:58N 59°20' E 018°05'0 0.0
2018-May-22 04:28N 59°20' E 018°05'0 0.0
2018-May-22 03:58N 59°20' E 018°05'0 0.0
2018-May-22 03:28N 59°20' E 018°05'0 0.0
2018-May-22 02:58N 59°20' E 018°05'0 0.0
2018-May-22 02:28N 59°20' E 018°05'0 0.0
2018-May-22 01:58N 59°20' E 018°05'0 0.0
2018-May-22 01:28N 59°20' E 018°05'0 0.0
2018-May-22 00:58N 59°20' E 018°05'0 0.0
2018-May-22 00:28N 59°20' E 018°05'0 0.0
2018-May-21 23:58N 59°20' E 018°05'0 0.0
2018-May-21 23:28N 59°20' E 018°05'0 0.0
2018-May-21 22:58N 59°20' E 018°05'0 0.0
2018-May-21 22:28N 59°20' E 018°05'0 0.0
2018-May-21 21:58N 59°20' E 018°05'0 0.0
2018-May-21 21:28N 59°20' E 018°05'1 1.3
2018-May-21 21:00N 59°19' E 018°05'1 1.1
2018-May-21 20:28N 59°20' E 018°05'0 0.0
2018-May-21 19:58N 59°20' E 018°05'0 0.0
2018-May-21 19:28N 59°20' E 018°05'0 0.0
2018-May-21 18:58N 59°20' E 018°05'3 6.4
2018-May-21 18:29N 59°20' E 018°11'511.0
2018-May-21 17:59N 59°23' E 018°19'1 1.1
2018-May-21 17:19N 59°23' E 018°20'2 5.5
2018-May-21 16:58N 59°22' E 018°18'510.3
2018-May-21 16:30N 59°19' E 018°10'3 5.5
2018-May-21 16:00N 59°20' E 018°05'0 0.0
2018-May-21 15:30N 59°20' E 018°05'0 0.0
2018-May-21 15:00N 59°20' E 018°05'0 0.0
2018-May-21 14:30N 59°20' E 018°05'0 0.0
2018-May-21 14:00N 59°20' E 018°05'0 0.0
2018-May-21 13:30N 59°20' E 018°05'0 0.0
2018-May-21 12:57N 59°20' E 018°05'0 0.0
2018-May-21 12:30N 59°20' E 018°05'0 0.0
2018-May-21 12:00N 59°20' E 018°05'0 0.0
2018-May-21 11:30N 59°20' E 018°05'0 0.0
2018-May-21 11:00N 59°20' E 018°05'0 0.0
2018-May-21 10:30N 59°20' E 018°05'0 0.0
2018-May-21 10:00N 59°20' E 018°05'0 0.0
2018-May-21 09:30N 59°20' E 018°05'0 0.0
2018-May-21 09:00N 59°20' E 018°05'0 0.0
2018-May-21 08:30N 59°20' E 018°05'0 0.0
2018-May-21 08:00N 59°20' E 018°05'0 0.0
2018-May-21 07:30N 59°20' E 018°05'0 0.0
2018-May-21 07:00N 59°20' E 018°05'0 0.0
2018-May-21 06:30N 59°20' E 018°05'0 0.0
2018-May-21 06:00N 59°20' E 018°05'0 0.0
2018-May-21 05:30N 59°20' E 018°05'0 0.0
2018-May-21 05:00N 59°20' E 018°05'0 0.0
2018-May-21 04:30N 59°20' E 018°05'0 0.0
2018-May-21 04:00N 59°20' E 018°05'0 0.0
2018-May-21 03:30N 59°20' E 018°05'0 0.0
2018-May-21 03:00N 59°20' E 018°05'0 0.0
2018-May-21 02:30N 59°20' E 018°05'0 0.0
2018-May-21 02:00N 59°20' E 018°05'0 0.0
2018-May-21 01:30N 59°20' E 018°05'0 0.0
2018-May-21 01:00N 59°20' E 018°05'0 0.0
2018-May-21 00:30N 59°20' E 018°05'0 0.0
2018-May-21 00:00N 59°20' E 018°05'0 0.0
2018-May-20 23:30N 59°20' E 018°05'0 0.0
2018-May-20 23:00N 59°20' E 018°05'0 0.0
2018-May-20 22:31N 59°20' E 018°05'0 0.0
2018-May-20 22:00N 59°20' E 018°05'0 0.0
2018-May-20 21:27N 59°20' E 018°05'0 0.0
2018-May-20 21:00N 59°20' E 018°05'0 0.0
2018-May-20 20:30N 59°20' E 018°05'0 0.0
2018-May-20 20:00N 59°20' E 018°05'0 0.0
2018-May-20 19:30N 59°20' E 018°05'0 0.0
2018-May-20 19:00N 59°20' E 018°05'0 0.0
2018-May-20 18:28N 59°20' E 018°05'0 0.0
2018-May-20 18:01N 59°20' E 018°05'0 0.0
2018-May-20 17:30N 59°20' E 018°05'0 0.0
2018-May-20 17:00N 59°20' E 018°05'0 0.0
2018-May-20 16:28N 59°20' E 018°05'0 0.0
2018-May-20 15:58N 59°20' E 018°05'0 0.0
2018-May-20 15:30N 59°20' E 018°05'0 0.0
2018-May-20 14:57N 59°20' E 018°05'0 0.0
2018-May-20 14:27N 59°20' E 018°05'0 0.0
2018-May-20 14:00N 59°20' E 018°05'0 0.0
2018-May-20 13:31N 59°20' E 018°05'0 0.0
2018-May-20 13:01N 59°20' E 018°05'0 0.0
2018-May-20 12:31N 59°20' E 018°05'0 0.0
2018-May-20 11:58N 59°20' E 018°05'0 0.0
2018-May-20 11:25N 59°20' E 018°05'0 0.0
2018-May-20 10:58N 59°20' E 018°05'0 0.0
2018-May-20 10:31N 59°20' E 018°05'0 0.0
2018-May-20 10:00N 59°20' E 018°05'0 0.0
2018-May-20 09:31N 59°20' E 018°05'0 0.0
2018-May-20 09:01N 59°20' E 018°05'0 0.0
2018-May-20 08:31N 59°20' E 018°05'0 0.0
2018-May-20 08:01N 59°20' E 018°05'0 0.0
2018-May-20 07:31N 59°20' E 018°05'0 0.0
2018-May-20 07:01N 59°20' E 018°05'0 0.0
2018-May-20 06:28N 59°20' E 018°05'0 0.0
2018-May-20 06:01N 59°20' E 018°05'0 0.0
2018-May-20 05:31N 59°20' E 018°05'0 0.0
2018-May-20 04:58N 59°20' E 018°05'0 0.0
2018-May-20 04:31N 59°20' E 018°05'0 0.0
2018-May-20 04:01N 59°20' E 018°05'0 0.0
2018-May-20 03:28N 59°20' E 018°05'0 0.0
2018-May-20 02:58N 59°20' E 018°05'0 0.0
2018-May-20 02:31N 59°20' E 018°05'0 0.0
2018-May-20 02:01N 59°20' E 018°05'0 0.0
2018-May-20 01:28N 59°20' E 018°05'0 0.0
2018-May-20 00:58N 59°20' E 018°05'0 0.0
2018-May-20 00:31N 59°20' E 018°05'0 0.0
2018-May-19 23:58N 59°20' E 018°05'0 0.0
2018-May-19 23:31N 59°20' E 018°05'0 0.0
2018-May-19 22:58N 59°20' E 018°05'0 0.0
2018-May-19 22:28N 59°20' E 018°05'0 0.0
2018-May-19 21:58N 59°20' E 018°05'0 0.0
2018-May-19 21:31N 59°20' E 018°05'0 0.0
2018-May-19 21:01N 59°20' E 018°05'0 0.0
2018-May-19 20:28N 59°20' E 018°05'0 0.0
2018-May-19 19:58N 59°20' E 018°05'0 0.0
2018-May-19 19:28N 59°20' E 018°05'0 0.0
2018-May-19 18:58N 59°20' E 018°05'0 0.0
2018-May-19 18:25N 59°20' E 018°05'0 0.0
2018-May-19 17:58N 59°20' E 018°05'0 0.0
2018-May-19 17:28N 59°20' E 018°05'0 0.0
2018-May-19 16:58N 59°20' E 018°05'0 0.0
2018-May-19 16:28N 59°20' E 018°05'0 0.0
2018-May-19 15:58N 59°20' E 018°05'0 0.0
2018-May-19 15:28N 59°20' E 018°05'1 2.6
2018-May-19 15:00N 59°19' E 018°06'2 3.8
2018-May-19 14:30N 59°20' E 018°10'3 5.5
2018-May-19 14:00N 59°20' E 018°05'3 5.8
2018-May-19 13:30N 59°20' E 018°10'3 6.0
2018-May-19 13:00N 59°20' E 018°05'3 5.8
2018-May-19 12:29N 59°20' E 018°11'3 5.9
2018-May-19 11:59N 59°20' E 018°05'3 5.9
2018-May-19 11:29N 59°20' E 018°11'3 6.1
2018-May-19 11:00N 59°20' E 018°05'3 5.8
2018-May-19 10:29N 59°20' E 018°11'3 6.1
2018-May-19 10:00N 59°20' E 018°05'4 8.0
2018-May-19 09:30N 59°20' E 018°13'3 5.2
2018-May-19 08:52N 59°19' E 018°18'1 2.1
2018-May-19 08:21N 59°18' E 018°16'3 6.2
2018-May-19 07:54N 59°20' E 018°13'410.0
2018-May-19 07:30N 59°20' E 018°05'0 0.4
2018-May-19 07:00N 59°20' E 018°05'0 0.0
2018-May-19 06:30N 59°20' E 018°05'0 0.0
2018-May-19 06:00N 59°20' E 018°05'0 0.0
2018-May-19 05:30N 59°20' E 018°05'0 0.0
2018-May-19 05:00N 59°20' E 018°05'0 0.0
2018-May-19 04:30N 59°20' E 018°05'0 0.0
2018-May-19 04:00N 59°20' E 018°05'0 0.0
2018-May-19 03:30N 59°20' E 018°05'0 0.0
2018-May-19 03:00N 59°20' E 018°05'0 0.0
2018-May-19 02:30N 59°20' E 018°05'0 0.0
2018-May-19 02:00N 59°20' E 018°05'0 0.0
2018-May-19 01:30N 59°20' E 018°05'0 0.0
2018-May-19 01:00N 59°20' E 018°05'0 0.0
2018-May-19 00:30N 59°20' E 018°05'0 0.0
2018-May-18 23:57N 59°20' E 018°05'0 0.0
2018-May-18 23:30N 59°20' E 018°05'0 0.0
2018-May-18 22:57N 59°20' E 018°05'0 0.0
2018-May-18 22:30N 59°20' E 018°05'0 0.0
2018-May-18 22:00N 59°20' E 018°05'0 0.0
2018-May-18 21:30N 59°20' E 018°05'0 0.0
2018-May-18 21:00N 59°20' E 018°05'0 0.0
2018-May-18 20:28N 59°20' E 018°05'4 7.7
2018-May-18 20:00N 59°20' E 018°12'510.5
2018-May-18 19:30N 59°23' E 018°20'1 2.6
2018-May-18 18:58N 59°24' E 018°22'3 6.1
2018-May-18 18:29N 59°22' E 018°18'5 9.4
2018-May-18 18:00N 59°20' E 018°10'3 5.4
2018-May-18 17:29N 59°20' E 018°05'0 0.0
2018-May-18 16:59N 59°20' E 018°05'0 0.0
2018-May-18 16:29N 59°20' E 018°05'0 0.0
2018-May-18 15:59N 59°20' E 018°05'0 0.0
2018-May-18 15:29N 59°20' E 018°05'0 0.0
2018-May-18 14:59N 59°20' E 018°05'0 0.0
2018-May-18 14:29N 59°20' E 018°05'0 0.0
2018-May-18 13:59N 59°20' E 018°05'0 0.0
2018-May-18 13:29N 59°20' E 018°05'0 0.0
2018-May-18 12:50N 59°20' E 018°05'0 0.0
2018-May-18 12:29N 59°20' E 018°05'0 0.0
2018-May-18 11:59N 59°20' E 018°05'0 0.0
2018-May-18 11:29N 59°20' E 018°05'0 0.0
2018-May-18 10:59N 59°20' E 018°05'0 0.0
2018-May-18 10:29N 59°20' E 018°05'0 0.0
2018-May-18 09:59N 59°20' E 018°05'0 0.0
2018-May-18 09:29N 59°20' E 018°05'0 0.0
2018-May-18 08:59N 59°20' E 018°05'0 0.0
2018-May-18 08:29N 59°20' E 018°05'0 0.0
2018-May-18 07:59N 59°20' E 018°05'0 0.0
2018-May-18 07:29N 59°20' E 018°05'0 0.0
2018-May-18 06:59N 59°20' E 018°05'0 0.0
2018-May-18 06:29N 59°20' E 018°05'0 0.0
2018-May-18 05:59N 59°20' E 018°05'0 0.0
2018-May-18 05:29N 59°20' E 018°05'0 0.0
2018-May-18 04:59N 59°20' E 018°05'0 0.0
2018-May-18 04:29N 59°20' E 018°05'0 0.0
2018-May-18 03:59N 59°20' E 018°05'0 0.0
2018-May-18 03:29N 59°20' E 018°05'0 0.0
2018-May-18 02:59N 59°20' E 018°05'0 0.0
2018-May-18 02:29N 59°20' E 018°05'0 0.0
2018-May-18 01:59N 59°20' E 018°05'0 0.0
2018-May-18 01:29N 59°20' E 018°05'0 0.0
2018-May-18 00:59N 59°20' E 018°05'0 0.0
2018-May-18 00:29N 59°20' E 018°05'0 0.0
2018-May-17 23:59N 59°20' E 018°05'0 0.0
2018-May-17 23:29N 59°20' E 018°05'0 0.0
2018-May-17 22:59N 59°20' E 018°05'0 0.0
2018-May-17 22:29N 59°20' E 018°05'0 0.0
2018-May-17 21:59N 59°20' E 018°05'0 0.0
2018-May-17 21:29N 59°20' E 018°05'0 0.0
2018-May-17 20:59N 59°20' E 018°05'0 0.0
2018-May-17 20:29N 59°20' E 018°05'3 6.4
2018-May-17 20:00N 59°20' E 018°11'510.2
2018-May-17 19:30N 59°23' E 018°19'1 1.2
2018-May-17 18:48N 59°23' E 018°20'2 5.4
2018-May-17 18:25N 59°22' E 018°17'4 9.5
2018-May-17 18:00N 59°20' E 018°11'3 4.6
2018-May-17 17:20N 59°20' E 018°05'0 0.0
2018-May-17 16:56N 59°20' E 018°05'0 0.0
2018-May-17 16:26N 59°20' E 018°05'0 0.0
2018-May-17 15:56N 59°20' E 018°05'0 0.0
2018-May-17 15:26N 59°20' E 018°05'0 0.0
2018-May-17 14:56N 59°20' E 018°05'0 0.0
2018-May-17 14:26N 59°20' E 018°05'0 0.0
2018-May-17 13:44N 59°20' E 018°05'0 0.0
2018-May-17 13:23N 59°20' E 018°05'0 0.0
2018-May-17 12:56N 59°20' E 018°05'0 0.0
2018-May-17 12:26N 59°20' E 018°05'0 0.0
2018-May-17 11:56N 59°20' E 018°05'0 0.0
2018-May-17 11:26N 59°20' E 018°05'0 0.0
2018-May-17 10:59N 59°20' E 018°05'0 0.0
2018-May-17 10:26N 59°20' E 018°05'0 0.0
2018-May-17 09:44N 59°20' E 018°05'0 0.0
2018-May-17 09:20N 59°20' E 018°05'0 0.0
2018-May-17 08:59N 59°20' E 018°05'0 0.0
2018-May-17 08:14N 59°20' E 018°05'0 0.0
2018-May-17 07:50N 59°20' E 018°05'0 0.0
2018-May-17 07:23N 59°20' E 018°05'0 0.0
2018-May-17 06:50N 59°20' E 018°05'0 0.0
2018-May-17 06:26N 59°20' E 018°05'0 0.0
2018-May-17 05:56N 59°20' E 018°05'0 0.0
2018-May-17 05:29N 59°20' E 018°05'0 0.0
2018-May-17 04:59N 59°20' E 018°05'0 0.0
2018-May-17 04:29N 59°20' E 018°05'0 0.0
2018-May-17 03:59N 59°20' E 018°05'0 0.0
2018-May-17 03:29N 59°20' E 018°05'0 0.0
2018-May-17 02:59N 59°20' E 018°05'0 0.0
2018-May-17 02:29N 59°20' E 018°05'0 0.0
2018-May-17 01:59N 59°20' E 018°05'0 0.0
2018-May-17 01:29N 59°20' E 018°05'0 0.0
2018-May-17 00:56N 59°20' E 018°05'0 0.0
2018-May-17 00:29N 59°20' E 018°05'0 0.0
2018-May-16 23:59N 59°20' E 018°05'0 0.0
2018-May-16 23:29N 59°20' E 018°05'0 0.0
2018-May-16 22:59N 59°20' E 018°05'0 0.0
2018-May-16 22:29N 59°20' E 018°05'0 0.0
2018-May-16 21:59N 59°20' E 018°05'0 0.0
2018-May-16 21:29N 59°20' E 018°05'0 0.0
2018-May-16 20:59N 59°20' E 018°05'0 0.0
2018-May-16 20:30N 59°20' E 018°05'4 7.1
2018-May-16 20:00N 59°20' E 018°12'510.1
2018-May-16 19:30N 59°23' E 018°20'1 2.7
2018-May-16 18:57N 59°24' E 018°21'3 6.0
2018-May-16 18:30N 59°22' E 018°18'5 9.2
2018-May-16 18:00N 59°20' E 018°10'3 4.3
2018-May-16 17:21N 59°20' E 018°05'0 0.0
2018-May-16 16:57N 59°20' E 018°05'0 0.0
2018-May-16 16:09N 59°20' E 018°05'0 0.0
2018-May-16 15:57N 59°20' E 018°05'0 0.0
2018-May-16 15:27N 59°20' E 018°05'0 0.0
2018-May-16 14:57N 59°20' E 018°05'0 0.0
2018-May-16 14:03N 59°20' E 018°05'0 0.0
2018-May-16 13:57N 59°20' E 018°05'0 0.0
2018-May-16 13:27N 59°20' E 018°05'0 0.0
2018-May-16 12:58N 59°20' E 018°05'0 0.0
2018-May-16 12:27N 59°20' E 018°05'0 0.0
2018-May-16 11:51N 59°20' E 018°05'0 0.0
2018-May-16 11:27N 59°20' E 018°05'0 0.0
2018-May-16 10:45N 59°20' E 018°05'0 0.0
2018-May-16 10:21N 59°20' E 018°05'0 0.0
2018-May-16 09:57N 59°20' E 018°05'0 0.0
2018-May-16 09:21N 59°20' E 018°05'0 0.0
2018-May-16 08:57N 59°20' E 018°05'0 0.0
2018-May-16 08:27N 59°20' E 018°05'0 0.0
2018-May-16 07:51N 59°20' E 018°05'0 0.0
2018-May-16 06:51N 59°20' E 018°05'0 0.0
2018-May-16 06:27N 59°20' E 018°05'0 0.0
2018-May-16 05:57N 59°20' E 018°05'0 0.0
2018-May-16 05:27N 59°20' E 018°05'0 0.0
2018-May-16 04:57N 59°20' E 018°05'0 0.0
2018-May-16 04:27N 59°20' E 018°05'0 0.0
2018-May-16 03:57N 59°20' E 018°05'0 0.0
2018-May-16 03:15N 59°20' E 018°05'0 0.0
2018-May-16 02:33N 59°20' E 018°05'0 0.0
2018-May-16 02:21N 59°20' E 018°05'0 0.0
2018-May-16 01:51N 59°20' E 018°05'0 0.0
2018-May-16 01:27N 59°20' E 018°05'0 0.0
2018-May-16 00:57N 59°20' E 018°05'0 0.0
2018-May-16 00:27N 59°20' E 018°05'0 0.0
2018-May-15 23:45N 59°20' E 018°05'0 0.0
2018-May-15 23:27N 59°20' E 018°05'0 0.0
2018-May-15 22:57N 59°20' E 018°05'0 0.0
2018-May-15 22:21N 59°20' E 018°05'0 0.0
2018-May-15 21:57N 59°20' E 018°05'0 0.0
2018-May-15 21:21N 59°20' E 018°05'0 0.0
2018-May-15 20:48N 59°20' E 018°05'0 0.1
2018-May-15 20:30N 59°20' E 018°05'4 7.3
2018-May-15 20:00N 59°20' E 018°12'5 9.7
2018-May-15 19:30N 59°23' E 018°20'2 2.5
2018-May-15 18:52N 59°24' E 018°21'3 6.2
2018-May-15 18:25N 59°22' E 018°18'510.6
2018-May-15 17:58N 59°19' E 018°10'3 4.2
2018-May-15 17:20N 59°20' E 018°05'0 0.0
2018-May-15 16:59N 59°20' E 018°05'0 0.0
2018-May-15 16:29N 59°20' E 018°05'0 0.0
2018-May-15 15:53N 59°20' E 018°05'0 0.0
2018-May-15 15:23N 59°20' E 018°05'0 0.0
2018-May-15 14:59N 59°20' E 018°05'0 0.0
2018-May-15 14:23N 59°20' E 018°05'0 0.0
2018-May-15 13:53N 59°20' E 018°05'0 0.0
2018-May-15 13:11N 59°20' E 018°05'0 0.0
2018-May-15 12:41N 59°20' E 018°05'0 0.0
2018-May-15 12:17N 59°20' E 018°05'0 0.0
2018-May-15 11:56N 59°20' E 018°05'0 0.0
2018-May-15 11:29N 59°20' E 018°05'0 0.0
2018-May-15 10:59N 59°20' E 018°05'0 0.0
2018-May-15 10:29N 59°20' E 018°05'0 0.0
2018-May-15 09:53N 59°20' E 018°05'0 0.0
2018-May-15 08:53N 59°20' E 018°05'0 0.0
2018-May-15 08:29N 59°20' E 018°05'0 0.0
2018-May-15 07:53N 59°20' E 018°05'0 0.0
2018-May-15 07:23N 59°20' E 018°05'0 0.0
2018-May-15 06:59N 59°20' E 018°05'0 0.0
2018-May-15 06:23N 59°20' E 018°05'0 0.0
2018-May-15 05:59N 59°20' E 018°05'0 0.0
2018-May-15 05:29N 59°20' E 018°05'0 0.0
2018-May-15 04:59N 59°20' E 018°05'0 0.0
2018-May-15 04:29N 59°20' E 018°05'0 0.0
2018-May-15 03:59N 59°20' E 018°05'0 0.0
2018-May-15 03:29N 59°20' E 018°05'0 0.0
2018-May-15 02:59N 59°20' E 018°05'0 0.0
2018-May-15 02:29N 59°20' E 018°05'0 0.0
2018-May-15 01:59N 59°20' E 018°05'0 0.0
2018-May-15 01:29N 59°20' E 018°05'0 0.0
2018-May-15 00:59N 59°20' E 018°05'0 0.0
2018-May-15 00:29N 59°20' E 018°05'0 0.0
2018-May-14 23:59N 59°20' E 018°05'0 0.0
2018-May-14 23:29N 59°20' E 018°05'0 0.0
2018-May-14 22:59N 59°20' E 018°05'0 0.0
2018-May-14 22:29N 59°20' E 018°05'0 0.0
2018-May-14 21:59N 59°20' E 018°05'0 0.0
2018-May-14 21:29N 59°20' E 018°05'0 0.0
2018-May-14 20:59N 59°20' E 018°05'0 0.0
2018-May-14 20:29N 59°20' E 018°05'0 0.0
2018-May-14 19:59N 59°20' E 018°05'0 0.0
2018-May-14 19:29N 59°20' E 018°05'0 0.0
2018-May-14 18:59N 59°20' E 018°05'0 0.0
2018-May-14 18:29N 59°20' E 018°05'0 0.0
2018-May-14 17:59N 59°20' E 018°05'0 0.0
2018-May-14 17:29N 59°20' E 018°05'0 0.0
2018-May-14 16:59N 59°20' E 018°05'0 0.0
2018-May-14 16:29N 59°20' E 018°05'0 0.0
2018-May-14 15:59N 59°20' E 018°05'0 0.0
2018-May-14 15:29N 59°20' E 018°05'0 0.0
2018-May-14 14:59N 59°20' E 018°05'0 0.0
2018-May-14 14:29N 59°20' E 018°05'0 0.0
2018-May-14 13:59N 59°20' E 018°05'0 0.0
2018-May-14 13:29N 59°20' E 018°05'0 0.0
2018-May-14 12:59N 59°20' E 018°05'0 0.0
2018-May-14 12:29N 59°20' E 018°05'0 0.0
2018-May-14 11:53N 59°20' E 018°05'0 0.0
2018-May-14 11:29N 59°20' E 018°05'0 0.0
2018-May-14 10:59N 59°20' E 018°05'0 0.0
2018-May-14 10:29N 59°20' E 018°05'0 0.0
2018-May-14 09:59N 59°20' E 018°05'0 0.0
2018-May-14 09:29N 59°20' E 018°05'0 0.0
2018-May-14 08:59N 59°20' E 018°05'0 0.0
2018-May-14 08:29N 59°20' E 018°05'0 0.0
2018-May-14 07:59N 59°20' E 018°05'0 0.0
2018-May-14 07:29N 59°20' E 018°05'0 0.0
2018-May-14 06:59N 59°20' E 018°05'0 0.0
2018-May-14 06:29N 59°20' E 018°05'0 0.0
2018-May-14 05:59N 59°20' E 018°05'0 0.0
2018-May-14 05:29N 59°20' E 018°05'0 0.0
2018-May-14 04:59N 59°20' E 018°05'0 0.0
2018-May-14 04:29N 59°20' E 018°05'0 0.0
2018-May-14 03:59N 59°20' E 018°05'0 0.0
2018-May-14 03:29N 59°20' E 018°05'0 0.0
2018-May-14 02:59N 59°20' E 018°05'0 0.0
2018-May-14 02:29N 59°20' E 018°05'  
Track history (hours):
 
Tides and Currents Weather Stations Pressure Air Temp Water Temp Dewpoint Dewpoint Depression Visibility Wind Speed Wind Dir Waves Ship Positions

M/s Stromma Kanal

Last reported at 2018-May-24 02:27 UTC. Time now 2018-May-24 02:34 UTC.
Position N 59°20' E 018°05'.

Length 26 m.

Type: Passenger vessel. MMSI: 265609570.

Date/timePositionNaut miles runAvg speedWind from/ knotsBaromVisibWave heightAir tempDewpointWater temp
2018-May-24 02:27N 59°20' E 018°05'0 0.0
2018-May-24 01:57N 59°20' E 018°05'0 0.0
2018-May-24 01:30N 59°20' E 018°05'0 0.0
2018-May-24 01:00N 59°20' E 018°05'0 0.0
2018-May-24 00:27N 59°20' E 018°05'0 0.0
2018-May-24 00:00N 59°20' E 018°05'0 0.0
2018-May-23 23:27N 59°20' E 018°05'0 0.0
2018-May-23 23:00N 59°20' E 018°05'0 0.0
2018-May-23 22:30N 59°20' E 018°05'0 0.0
2018-May-23 22:00N 59°20' E 018°05'0 0.0
2018-May-23 21:30N 59°20' E 018°05'0 0.0
2018-May-23 21:00N 59°20' E 018°05'0 0.5
2018-May-23 20:28N 59°20' E 018°05'3 7.2
2018-May-23 20:00N 59°20' E 018°12'5 9.8
2018-May-23 19:30N 59°23' E 018°20'1 1.0
2018-May-23 18:48N 59°23' E 018°20'2 5.5
2018-May-23 18:27N 59°22' E 018°18'4 9.1
2018-May-23 18:00N 59°20' E 018°11'3 6.3
2018-May-23 17:30N 59°20' E 018°05'0 0.4
2018-May-23 17:00N 59°20' E 018°05'0 0.0
2018-May-23 16:30N 59°20' E 018°05'0 0.0
2018-May-23 16:00N 59°20' E 018°05'0 0.0
2018-May-23 15:30N 59°20' E 018°05'1 1.7
2018-May-23 15:00N 59°19' E 018°05'510.5
2018-May-23 14:30N 59°21' E 018°14'14 3.0
2018-May-23 09:58N 59°18' E 018°40'11 6.4
2018-May-23 08:11N 59°23' E 018°20'313.7
2018-May-23 08:00N 59°21' E 018°16'611.3
2018-May-23 07:28N 59°19' E 018°05'1 1.6
2018-May-23 06:58N 59°20' E 018°05'0 0.0
2018-May-23 06:28N 59°20' E 018°05'0 0.0
2018-May-23 05:58N 59°20' E 018°05'0 0.0
2018-May-23 05:28N 59°20' E 018°05'0 0.0
2018-May-23 04:58N 59°20' E 018°05'0 0.0
2018-May-23 04:28N 59°20' E 018°05'0 0.0
2018-May-23 03:58N 59°20' E 018°05'0 0.0
2018-May-23 03:28N 59°20' E 018°05'0 0.0
2018-May-23 02:58N 59°20' E 018°05'0 0.0
2018-May-23 02:28N 59°20' E 018°05'0 0.0
2018-May-23 01:58N 59°20' E 018°05'0 0.0
2018-May-23 01:28N 59°20' E 018°05'0 0.0
2018-May-23 00:58N 59°20' E 018°05'0 0.0
2018-May-23 00:28N 59°20' E 018°05'0 0.0
2018-May-22 23:58N 59°20' E 018°05'0 0.0
2018-May-22 23:28N 59°20' E 018°05'0 0.0
2018-May-22 22:58N 59°20' E 018°05'0 0.0
2018-May-22 22:28N 59°20' E 018°05'0 0.0
2018-May-22 21:58N 59°20' E 018°05'0 0.0
2018-May-22 21:28N 59°20' E 018°05'0 0.0
2018-May-22 20:58N 59°20' E 018°05'0 0.0
2018-May-22 20:29N 59°20' E 018°05'3 6.5
2018-May-22 19:59N 59°20' E 018°11'510.3
2018-May-22 19:30N 59°23' E 018°19'1 0.8
2018-May-22 18:43N 59°23' E 018°20'2 5.0
2018-May-22 18:24N 59°22' E 018°18'411.1
2018-May-22 18:00N 59°20' E 018°10'3 5.6
2018-May-22 17:28N 59°20' E 018°05'0 0.0
2018-May-22 16:58N 59°20' E 018°05'0 0.0
2018-May-22 16:28N 59°20' E 018°05'0 0.0
2018-May-22 15:58N 59°20' E 018°05'0 0.0
2018-May-22 15:28N 59°20' E 018°05'0 0.0
2018-May-22 14:58N 59°20' E 018°05'0 0.0
2018-May-22 14:28N 59°20' E 018°05'0 0.0
2018-May-22 13:58N 59°20' E 018°05'0 0.0
2018-May-22 13:28N 59°20' E 018°05'0 0.0
2018-May-22 12:58N 59°20' E 018°05'0 0.0
2018-May-22 12:28N 59°20' E 018°05'0 0.0
2018-May-22 11:58N 59°20' E 018°05'0 0.0
2018-May-22 11:28N 59°20' E 018°05'0 0.0
2018-May-22 10:55N 59°20' E 018°05'0 0.0
2018-May-22 10:28N 59°20' E 018°05'0 0.0
2018-May-22 09:58N 59°20' E 018°05'0 0.0
2018-May-22 09:28N 59°20' E 018°05'0 0.0
2018-May-22 08:58N 59°20' E 018°05'0 0.0
2018-May-22 08:28N 59°20' E 018°05'0 0.0
2018-May-22 07:58N 59°20' E 018°05'0 0.0
2018-May-22 07:28N 59°20' E 018°05'0 0.0
2018-May-22 06:58N 59°20' E 018°05'0 0.0
2018-May-22 06:28N 59°20' E 018°05'0 0.0
2018-May-22 05:58N 59°20' E 018°05'0 0.0
2018-May-22 05:28N 59°20' E 018°05'0 0.0
2018-May-22 04:58N 59°20' E 018°05'0 0.0
2018-May-22 04:28N 59°20' E 018°05'0 0.0
2018-May-22 03:58N 59°20' E 018°05'0 0.0
2018-May-22 03:28N 59°20' E 018°05'0 0.0
2018-May-22 02:58N 59°20' E 018°05'0 0.0
2018-May-22 02:28N 59°20' E 018°05'0 0.0
2018-May-22 01:58N 59°20' E 018°05'0 0.0
2018-May-22 01:28N 59°20' E 018°05'0 0.0
2018-May-22 00:58N 59°20' E 018°05'0 0.0
2018-May-22 00:28N 59°20' E 018°05'0 0.0
2018-May-21 23:58N 59°20' E 018°05'0 0.0
2018-May-21 23:28N 59°20' E 018°05'0 0.0
2018-May-21 22:58N 59°20' E 018°05'0 0.0
2018-May-21 22:28N 59°20' E 018°05'0 0.0
2018-May-21 21:58N 59°20' E 018°05'0 0.0
2018-May-21 21:28N 59°20' E 018°05'1 1.3
2018-May-21 21:00N 59°19' E 018°05'1 1.1
2018-May-21 20:28N 59°20' E 018°05'0 0.0
2018-May-21 19:58N 59°20' E 018°05'0 0.0
2018-May-21 19:28N 59°20' E 018°05'0 0.0
2018-May-21 18:58N 59°20' E 018°05'3 6.4
2018-May-21 18:29N 59°20' E 018°11'511.0
2018-May-21 17:59N 59°23' E 018°19'1 1.1
2018-May-21 17:19N 59°23' E 018°20'2 5.5
2018-May-21 16:58N 59°22' E 018°18'510.3
2018-May-21 16:30N 59°19' E 018°10'3 5.5
2018-May-21 16:00N 59°20' E 018°05'0 0.0
2018-May-21 15:30N 59°20' E 018°05'0 0.0
2018-May-21 15:00N 59°20' E 018°05'0 0.0
2018-May-21 14:30N 59°20' E 018°05'0 0.0
2018-May-21 14:00N 59°20' E 018°05'0 0.0
2018-May-21 13:30N 59°20' E 018°05'0 0.0
2018-May-21 12:57N 59°20' E 018°05'0 0.0
2018-May-21 12:30N 59°20' E 018°05'0 0.0
2018-May-21 12:00N 59°20' E 018°05'0 0.0
2018-May-21 11:30N 59°20' E 018°05'0 0.0
2018-May-21 11:00N 59°20' E 018°05'0 0.0
2018-May-21 10:30N 59°20' E 018°05'0 0.0
2018-May-21 10:00N 59°20' E 018°05'0 0.0
2018-May-21 09:30N 59°20' E 018°05'0 0.0
2018-May-21 09:00N 59°20' E 018°05'0 0.0
2018-May-21 08:30N 59°20' E 018°05'0 0.0
2018-May-21 08:00N 59°20' E 018°05'0 0.0
2018-May-21 07:30N 59°20' E 018°05'0 0.0
2018-May-21 07:00N 59°20' E 018°05'0 0.0
2018-May-21 06:30N 59°20' E 018°05'0 0.0
2018-May-21 06:00N 59°20' E 018°05'0 0.0
2018-May-21 05:30N 59°20' E 018°05'0 0.0
2018-May-21 05:00N 59°20' E 018°05'0 0.0
2018-May-21 04:30N 59°20' E 018°05'0 0.0
2018-May-21 04:00N 59°20' E 018°05'0 0.0
2018-May-21 03:30N 59°20' E 018°05'0 0.0
2018-May-21 03:00N 59°20' E 018°05'0 0.0
2018-May-21 02:30N 59°20' E 018°05'0 0.0
2018-May-21 02:00N 59°20' E 018°05'0 0.0
2018-May-21 01:30N 59°20' E 018°05'0 0.0
2018-May-21 01:00N 59°20' E 018°05'0 0.0
2018-May-21 00:30N 59°20' E 018°05'0 0.0
2018-May-21 00:00N 59°20' E 018°05'0 0.0
2018-May-20 23:30N 59°20' E 018°05'0 0.0
2018-May-20 23:00N 59°20' E 018°05'0 0.0
2018-May-20 22:31N 59°20' E 018°05'0 0.0
2018-May-20 22:00N 59°20' E 018°05'0 0.0
2018-May-20 21:27N 59°20' E 018°05'0 0.0
2018-May-20 21:00N 59°20' E 018°05'0 0.0
2018-May-20 20:30N 59°20' E 018°05'0 0.0
2018-May-20 20:00N 59°20' E 018°05'0 0.0
2018-May-20 19:30N 59°20' E 018°05'0 0.0
2018-May-20 19:00N 59°20' E 018°05'0 0.0
2018-May-20 18:28N 59°20' E 018°05'0 0.0
2018-May-20 18:01N 59°20' E 018°05'0 0.0
2018-May-20 17:30N 59°20' E 018°05'0 0.0
2018-May-20 17:00N 59°20' E 018°05'0 0.0
2018-May-20 16:28N 59°20' E 018°05'0 0.0
2018-May-20 15:58N 59°20' E 018°05'0 0.0
2018-May-20 15:30N 59°20' E 018°05'0 0.0
2018-May-20 14:57N 59°20' E 018°05'0 0.0
2018-May-20 14:27N 59°20' E 018°05'0 0.0
2018-May-20 14:00N 59°20' E 018°05'0 0.0
2018-May-20 13:31N 59°20' E 018°05'0 0.0
2018-May-20 13:01N 59°20' E 018°05'0 0.0
2018-May-20 12:31N 59°20' E 018°05'0 0.0
2018-May-20 11:58N 59°20' E 018°05'0 0.0
2018-May-20 11:25N 59°20' E 018°05'0 0.0
2018-May-20 10:58N 59°20' E 018°05'0 0.0
2018-May-20 10:31N 59°20' E 018°05'0 0.0
2018-May-20 10:00N 59°20' E 018°05'0 0.0
2018-May-20 09:31N 59°20' E 018°05'0 0.0
2018-May-20 09:01N 59°20' E 018°05'0 0.0
2018-May-20 08:31N 59°20' E 018°05'0 0.0
2018-May-20 08:01N 59°20' E 018°05'0 0.0
2018-May-20 07:31N 59°20' E 018°05'0 0.0
2018-May-20 07:01N 59°20' E 018°05'0 0.0
2018-May-20 06:28N 59°20' E 018°05'0 0.0
2018-May-20 06:01N 59°20' E 018°05'0 0.0
2018-May-20 05:31N 59°20' E 018°05'0 0.0
2018-May-20 04:58N 59°20' E 018°05'0 0.0
2018-May-20 04:31N 59°20' E 018°05'0 0.0
2018-May-20 04:01N 59°20' E 018°05'0 0.0
2018-May-20 03:28N 59°20' E 018°05'0 0.0
2018-May-20 02:58N 59°20' E 018°05'0 0.0
2018-May-20 02:31N 59°20' E 018°05'0 0.0
2018-May-20 02:01N 59°20' E 018°05'0 0.0
2018-May-20 01:28N 59°20' E 018°05'0 0.0
2018-May-20 00:58N 59°20' E 018°05'0 0.0
2018-May-20 00:31N 59°20' E 018°05'0 0.0
2018-May-19 23:58N 59°20' E 018°05'0 0.0
2018-May-19 23:31N 59°20' E 018°05'0 0.0
2018-May-19 22:58N 59°20' E 018°05'0 0.0
2018-May-19 22:28N 59°20' E 018°05'0 0.0
2018-May-19 21:58N 59°20' E 018°05'0 0.0
2018-May-19 21:31N 59°20' E 018°05'0 0.0
2018-May-19 21:01N 59°20' E 018°05'0 0.0
2018-May-19 20:28N 59°20' E 018°05'0 0.0
2018-May-19 19:58N 59°20' E 018°05'0 0.0
2018-May-19 19:28N 59°20' E 018°05'0 0.0
2018-May-19 18:58N 59°20' E 018°05'0 0.0
2018-May-19 18:25N 59°20' E 018°05'0 0.0
2018-May-19 17:58N 59°20' E 018°05'0 0.0
2018-May-19 17:28N 59°20' E 018°05'0 0.0
2018-May-19 16:58N 59°20' E 018°05'0 0.0
2018-May-19 16:28N 59°20' E 018°05'0 0.0
2018-May-19 15:58N 59°20' E 018°05'0 0.0
2018-May-19 15:28N 59°20' E 018°05'1 2.6
2018-May-19 15:00N 59°19' E 018°06'2 3.8
2018-May-19 14:30N 59°20' E 018°10'3 5.5
2018-May-19 14:00N 59°20' E 018°05'3 5.8
2018-May-19 13:30N 59°20' E 018°10'3 6.0
2018-May-19 13:00N 59°20' E 018°05'3 5.8
2018-May-19 12:29N 59°20' E 018°11'3 5.9
2018-May-19 11:59N 59°20' E 018°05'3 5.9
2018-May-19 11:29N 59°20' E 018°11'3 6.1
2018-May-19 11:00N 59°20' E 018°05'3 5.8
2018-May-19 10:29N 59°20' E 018°11'3 6.1
2018-May-19 10:00N 59°20' E 018°05'4 8.0
2018-May-19 09:30N 59°20' E 018°13'3 5.2
2018-May-19 08:52N 59°19' E 018°18'1 2.1
2018-May-19 08:21N 59°18' E 018°16'3 6.2
2018-May-19 07:54N 59°20' E 018°13'410.0
2018-May-19 07:30N 59°20' E 018°05'0 0.4
2018-May-19 07:00N 59°20' E 018°05'0 0.0
2018-May-19 06:30N 59°20' E 018°05'0 0.0
2018-May-19 06:00N 59°20' E 018°05'0 0.0
2018-May-19 05:30N 59°20' E 018°05'0 0.0
2018-May-19 05:00N 59°20' E 018°05'0 0.0
2018-May-19 04:30N 59°20' E 018°05'0 0.0
2018-May-19 04:00N 59°20' E 018°05'0 0.0
2018-May-19 03:30N 59°20' E 018°05'0 0.0
2018-May-19 03:00N 59°20' E 018°05'0 0.0
2018-May-19 02:30N 59°20' E 018°05'0 0.0
2018-May-19 02:00N 59°20' E 018°05'0 0.0
2018-May-19 01:30N 59°20' E 018°05'0 0.0
2018-May-19 01:00N 59°20' E 018°05'0 0.0
2018-May-19 00:30N 59°20' E 018°05'0 0.0
2018-May-18 23:57N 59°20' E 018°05'0 0.0
2018-May-18 23:30N 59°20' E 018°05'0 0.0
2018-May-18 22:57N 59°20' E 018°05'0 0.0
2018-May-18 22:30N 59°20' E 018°05'0 0.0
2018-May-18 22:00N 59°20' E 018°05'0 0.0
2018-May-18 21:30N 59°20' E 018°05'0 0.0
2018-May-18 21:00N 59°20' E 018°05'0 0.0
2018-May-18 20:28N 59°20' E 018°05'4 7.7
2018-May-18 20:00N 59°20' E 018°12'510.5
2018-May-18 19:30N 59°23' E 018°20'1 2.6
2018-May-18 18:58N 59°24' E 018°22'3 6.1
2018-May-18 18:29N 59°22' E 018°18'5 9.4
2018-May-18 18:00N 59°20' E 018°10'3 5.4
2018-May-18 17:29N 59°20' E 018°05'0 0.0
2018-May-18 16:59N 59°20' E 018°05'0 0.0
2018-May-18 16:29N 59°20' E 018°05'0 0.0
2018-May-18 15:59N 59°20' E 018°05'0 0.0
2018-May-18 15:29N 59°20' E 018°05'0 0.0
2018-May-18 14:59N 59°20' E 018°05'0 0.0
2018-May-18 14:29N 59°20' E 018°05'0 0.0
2018-May-18 13:59N 59°20' E 018°05'0 0.0
2018-May-18 13:29N 59°20' E 018°05'0 0.0
2018-May-18 12:50N 59°20' E 018°05'0 0.0
2018-May-18 12:29N 59°20' E 018°05'0 0.0
2018-May-18 11:59N 59°20' E 018°05'0 0.0
2018-May-18 11:29N 59°20' E 018°05'0 0.0
2018-May-18 10:59N 59°20' E 018°05'0 0.0
2018-May-18 10:29N 59°20' E 018°05'0 0.0
2018-May-18 09:59N 59°20' E 018°05'0 0.0
2018-May-18 09:29N 59°20' E 018°05'0 0.0
2018-May-18 08:59N 59°20' E 018°05'0 0.0
2018-May-18 08:29N 59°20' E 018°05'0 0.0
2018-May-18 07:59N 59°20' E 018°05'0 0.0
2018-May-18 07:29N 59°20' E 018°05'0 0.0
2018-May-18 06:59N 59°20' E 018°05'0 0.0
2018-May-18 06:29N 59°20' E 018°05'0 0.0
2018-May-18 05:59N 59°20' E 018°05'0 0.0
2018-May-18 05:29N 59°20' E 018°05'0 0.0
2018-May-18 04:59N 59°20' E 018°05'0 0.0
2018-May-18 04:29N 59°20' E 018°05'0 0.0
2018-May-18 03:59N 59°20' E 018°05'0 0.0
2018-May-18 03:29N 59°20' E 018°05'0 0.0
2018-May-18 02:59N 59°20' E 018°05'0 0.0
2018-May-18 02:29N 59°20' E 018°05'0 0.0
2018-May-18 01:59N 59°20' E 018°05'0 0.0
2018-May-18 01:29N 59°20' E 018°05'0 0.0
2018-May-18 00:59N 59°20' E 018°05'0 0.0
2018-May-18 00:29N 59°20' E 018°05'0 0.0
2018-May-17 23:59N 59°20' E 018°05'0 0.0
2018-May-17 23:29N 59°20' E 018°05'0 0.0
2018-May-17 22:59N 59°20' E 018°05'0 0.0
2018-May-17 22:29N 59°20' E 018°05'0 0.0
2018-May-17 21:59N 59°20' E 018°05'0 0.0
2018-May-17 21:29N 59°20' E 018°05'0 0.0
2018-May-17 20:59N 59°20' E 018°05'0 0.0
2018-May-17 20:29N 59°20' E 018°05'3 6.4
2018-May-17 20:00N 59°20' E 018°11'510.2
2018-May-17 19:30N 59°23' E 018°19'1 1.2
2018-May-17 18:48N 59°23' E 018°20'2 5.4
2018-May-17 18:25N 59°22' E 018°17'4 9.5
2018-May-17 18:00N 59°20' E 018°11'3 4.6
2018-May-17 17:20N 59°20' E 018°05'0 0.0
2018-May-17 16:56N 59°20' E 018°05'0 0.0
2018-May-17 16:26N 59°20' E 018°05'0 0.0
2018-May-17 15:56N 59°20' E 018°05'0 0.0
2018-May-17 15:26N 59°20' E 018°05'0 0.0
2018-May-17 14:56N 59°20' E 018°05'0 0.0
2018-May-17 14:26N 59°20' E 018°05'0 0.0
2018-May-17 13:44N 59°20' E 018°05'0 0.0
2018-May-17 13:23N 59°20' E 018°05'0 0.0
2018-May-17 12:56N 59°20' E 018°05'0 0.0
2018-May-17 12:26N 59°20' E 018°05'0 0.0
2018-May-17 11:56N 59°20' E 018°05'0 0.0
2018-May-17 11:26N 59°20' E 018°05'0 0.0
2018-May-17 10:59N 59°20' E 018°05'0 0.0
2018-May-17 10:26N 59°20' E 018°05'0 0.0
2018-May-17 09:44N 59°20' E 018°05'0 0.0
2018-May-17 09:20N 59°20' E 018°05'0 0.0
2018-May-17 08:59N 59°20' E 018°05'0 0.0
2018-May-17 08:14N 59°20' E 018°05'0 0.0
2018-May-17 07:50N 59°20' E 018°05'0 0.0
2018-May-17 07:23N 59°20' E 018°05'0 0.0
2018-May-17 06:50N 59°20' E 018°05'0 0.0
2018-May-17 06:26N 59°20' E 018°05'0 0.0
2018-May-17 05:56N 59°20' E 018°05'0 0.0
2018-May-17 05:29N 59°20' E 018°05'0 0.0
2018-May-17 04:59N 59°20' E 018°05'0 0.0
2018-May-17 04:29N 59°20' E 018°05'0 0.0
2018-May-17 03:59N 59°20' E 018°05'0 0.0
2018-May-17 03:29N 59°20' E 018°05'0 0.0
2018-May-17 02:59N 59°20' E 018°05'0 0.0
2018-May-17 02:29N 59°20' E 018°05'0 0.0
2018-May-17 01:59N 59°20' E 018°05'0 0.0
2018-May-17 01:29N 59°20' E 018°05'0 0.0
2018-May-17 00:56N 59°20' E 018°05'0 0.0
2018-May-17 00:29N 59°20' E 018°05'0 0.0
2018-May-16 23:59N 59°20' E 018°05'0 0.0
2018-May-16 23:29N 59°20' E 018°05'0 0.0
2018-May-16 22:59N 59°20' E 018°05'0 0.0
2018-May-16 22:29N 59°20' E 018°05'0 0.0
2018-May-16 21:59N 59°20' E 018°05'0 0.0
2018-May-16 21:29N 59°20' E 018°05'0 0.0
2018-May-16 20:59N 59°20' E 018°05'0 0.0
2018-May-16 20:30N 59°20' E 018°05'4 7.1
2018-May-16 20:00N 59°20' E 018°12'510.1
2018-May-16 19:30N 59°23' E 018°20'1 2.7
2018-May-16 18:57N 59°24' E 018°21'3 6.0
2018-May-16 18:30N 59°22' E 018°18'5 9.2
2018-May-16 18:00N 59°20' E 018°10'3 4.3
2018-May-16 17:21N 59°20' E 018°05'0 0.0
2018-May-16 16:57N 59°20' E 018°05'0 0.0
2018-May-16 16:09N 59°20' E 018°05'0 0.0
2018-May-16 15:57N 59°20' E 018°05'0 0.0
2018-May-16 15:27N 59°20' E 018°05'0 0.0
2018-May-16 14:57N 59°20' E 018°05'0 0.0
2018-May-16 14:03N 59°20' E 018°05'0 0.0
2018-May-16 13:57N 59°20' E 018°05'0 0.0
2018-May-16 13:27N 59°20' E 018°05'0 0.0
2018-May-16 12:58N 59°20' E 018°05'0 0.0
2018-May-16 12:27N 59°20' E 018°05'0 0.0
2018-May-16 11:51N 59°20' E 018°05'0 0.0
2018-May-16 11:27N 59°20' E 018°05'0 0.0
2018-May-16 10:45N 59°20' E 018°05'0 0.0
2018-May-16 10:21N 59°20' E 018°05'0 0.0
2018-May-16 09:57N 59°20' E 018°05'0 0.0
2018-May-16 09:21N 59°20' E 018°05'0 0.0
2018-May-16 08:57N 59°20' E 018°05'0 0.0
2018-May-16 08:27N 59°20' E 018°05'0 0.0
2018-May-16 07:51N 59°20' E 018°05'0 0.0
2018-May-16 06:51N 59°20' E 018°05'0 0.0
2018-May-16 06:27N 59°20' E 018°05'0 0.0
2018-May-16 05:57N 59°20' E 018°05'0 0.0
2018-May-16 05:27N 59°20' E 018°05'0 0.0
2018-May-16 04:57N 59°20' E 018°05'0 0.0
2018-May-16 04:27N 59°20' E 018°05'0 0.0
2018-May-16 03:57N 59°20' E 018°05'0 0.0
2018-May-16 03:15N 59°20' E 018°05'0 0.0
2018-May-16 02:33N 59°20' E 018°05'0 0.0
2018-May-16 02:21N 59°20' E 018°05'0 0.0
2018-May-16 01:51N 59°20' E 018°05'0 0.0
2018-May-16 01:27N 59°20' E 018°05'0 0.0
2018-May-16 00:57N 59°20' E 018°05'0 0.0
2018-May-16 00:27N 59°20' E 018°05'0 0.0
2018-May-15 23:45N 59°20' E 018°05'0 0.0
2018-May-15 23:27N 59°20' E 018°05'0 0.0
2018-May-15 22:57N 59°20' E 018°05'0 0.0
2018-May-15 22:21N 59°20' E 018°05'0 0.0
2018-May-15 21:57N 59°20' E 018°05'0 0.0
2018-May-15 21:21N 59°20' E 018°05'0 0.0
2018-May-15 20:48N 59°20' E 018°05'0 0.1
2018-May-15 20:30N 59°20' E 018°05'4 7.3
2018-May-15 20:00N 59°20' E 018°12'5 9.7
2018-May-15 19:30N 59°23' E 018°20'2 2.5
2018-May-15 18:52N 59°24' E 018°21'3 6.2
2018-May-15 18:25N 59°22' E 018°18'510.6
2018-May-15 17:58N 59°19' E 018°10'3 4.2
2018-May-15 17:20N 59°20' E 018°05'0 0.0
2018-May-15 16:59N 59°20' E 018°05'0 0.0
2018-May-15 16:29N 59°20' E 018°05'0 0.0
2018-May-15 15:53N 59°20' E 018°05'0 0.0
2018-May-15 15:23N 59°20' E 018°05'0 0.0
2018-May-15 14:59N 59°20' E 018°05'0 0.0
2018-May-15 14:23N 59°20' E 018°05'0 0.0
2018-May-15 13:53N 59°20' E 018°05'0 0.0
2018-May-15 13:11N 59°20' E 018°05'0 0.0
2018-May-15 12:41N 59°20' E 018°05'0 0.0
2018-May-15 12:17N 59°20' E 018°05'0 0.0
2018-May-15 11:56N 59°20' E 018°05'0 0.0
2018-May-15 11:29N 59°20' E 018°05'0 0.0
2018-May-15 10:59N 59°20' E 018°05'0 0.0
2018-May-15 10:29N 59°20' E 018°05'0 0.0
2018-May-15 09:53N 59°20' E 018°05'0 0.0
2018-May-15 08:53N 59°20' E 018°05'0 0.0
2018-May-15 08:29N 59°20' E 018°05'0 0.0
2018-May-15 07:53N 59°20' E 018°05'0 0.0
2018-May-15 07:23N 59°20' E 018°05'0 0.0
2018-May-15 06:59N 59°20' E 018°05'0 0.0
2018-May-15 06:23N 59°20' E 018°05'0 0.0
2018-May-15 05:59N 59°20' E 018°05'0 0.0
2018-May-15 05:29N 59°20' E 018°05'0 0.0
2018-May-15 04:59N 59°20' E 018°05'0 0.0
2018-May-15 04:29N 59°20' E 018°05'0 0.0
2018-May-15 03:59N 59°20' E 018°05'0 0.0
2018-May-15 03:29N 59°20' E 018°05'0 0.0
2018-May-15 02:59N 59°20' E 018°05'0 0.0
2018-May-15 02:29N 59°20' E 018°05'0 0.0
2018-May-15 01:59N 59°20' E 018°05'0 0.0
2018-May-15 01:29N 59°20' E 018°05'0 0.0
2018-May-15 00:59N 59°20' E 018°05'0 0.0
2018-May-15 00:29N 59°20' E 018°05'0 0.0
2018-May-14 23:59N 59°20' E 018°05'0 0.0
2018-May-14 23:29N 59°20' E 018°05'0 0.0
2018-May-14 22:59N 59°20' E 018°05'0 0.0
2018-May-14 22:29N 59°20' E 018°05'0 0.0
2018-May-14 21:59N 59°20' E 018°05'0 0.0
2018-May-14 21:29N 59°20' E 018°05'0 0.0
2018-May-14 20:59N 59°20' E 018°05'0 0.0
2018-May-14 20:29N 59°20' E 018°05'0 0.0
2018-May-14 19:59N 59°20' E 018°05'0 0.0
2018-May-14 19:29N 59°20' E 018°05'0 0.0
2018-May-14 18:59N 59°20' E 018°05'0 0.0
2018-May-14 18:29N 59°20' E 018°05'0 0.0
2018-May-14 17:59N 59°20' E 018°05'0 0.0
2018-May-14 17:29N 59°20' E 018°05'0 0.0
2018-May-14 16:59N 59°20' E 018°05'0 0.0
2018-May-14 16:29N 59°20' E 018°05'0 0.0
2018-May-14 15:59N 59°20' E 018°05'0 0.0
2018-May-14 15:29N 59°20' E 018°05'0 0.0
2018-May-14 14:59N 59°20' E 018°05'0 0.0
2018-May-14 14:29N 59°20' E 018°05'0 0.0
2018-May-14 13:59N 59°20' E 018°05'0 0.0
2018-May-14 13:29N 59°20' E 018°05'0 0.0
2018-May-14 12:59N 59°20' E 018°05'0 0.0
2018-May-14 12:29N 59°20' E 018°05'0 0.0
2018-May-14 11:53N 59°20' E 018°05'0 0.0
2018-May-14 11:29N 59°20' E 018°05'0 0.0
2018-May-14 10:59N 59°20' E 018°05'0 0.0
2018-May-14 10:29N 59°20' E 018°05'0 0.0
2018-May-14 09:59N 59°20' E 018°05'0 0.0
2018-May-14 09:29N 59°20' E 018°05'0 0.0
2018-May-14 08:59N 59°20' E 018°05'0 0.0
2018-May-14 08:29N 59°20' E 018°05'0 0.0
2018-May-14 07:59N 59°20' E 018°05'0 0.0
2018-May-14 07:29N 59°20' E 018°05'0 0.0
2018-May-14 06:59N 59°20' E 018°05'0 0.0
2018-May-14 06:29N 59°20' E 018°05'0 0.0
2018-May-14 05:59N 59°20' E 018°05'0 0.0
2018-May-14 05:29N 59°20' E 018°05'0 0.0
2018-May-14 04:59N 59°20' E 018°05'0 0.0
2018-May-14 04:29N 59°20' E 018°05'0 0.0
2018-May-14 03:59N 59°20' E 018°05'0 0.0
2018-May-14 03:29N 59°20' E 018°05'0 0.0
2018-May-14 02:59N 59°20' E 018°05'0 0.0
2018-May-14 02:29N 59°20' E 018°05'  

Dump ship's entire track history